sensor_id;sensor_type;location;lat;lon;timestamp;pressure;altitude;pressure_sealevel;temperature;humidity
40948;BME280;49382;-25.924;28.194;2022-10-31T00:01:27;84968.65;;;20.82;42.86
40948;BME280;49382;-25.924;28.194;2022-10-31T00:03:50;84968.12;;;20.67;42.75
40948;BME280;49382;-25.924;28.194;2022-10-31T00:06:16;84966.15;;;19.90;43.64
40948;BME280;49382;-25.924;28.194;2022-10-31T00:08:41;84969.58;;;20.62;42.63
40948;BME280;49382;-25.924;28.194;2022-10-31T00:11:09;84971.61;;;20.00;44.25
40948;BME280;49382;-25.924;28.194;2022-10-31T00:13:31;84977.73;;;20.93;43.01
40948;BME280;49382;-25.924;28.194;2022-10-31T00:15:56;84978.59;;;20.97;43.36
40948;BME280;49382;-25.924;28.194;2022-10-31T00:18:21;84975.62;;;21.26;42.80
40948;BME280;49382;-25.924;28.194;2022-10-31T00:20:46;84977.85;;;20.91;42.73
40948;BME280;49382;-25.924;28.194;2022-10-31T00:23:11;84982.77;;;21.43;42.14
40948;BME280;49382;-25.924;28.194;2022-10-31T00:25:37;84983.33;;;21.32;42.29
40948;BME280;49382;-25.924;28.194;2022-10-31T00:28:03;84985.82;;;21.50;41.98
40948;BME280;49382;-25.924;28.194;2022-10-31T00:30:28;84987.34;;;20.09;44.22
40948;BME280;49382;-25.924;28.194;2022-10-31T00:32:54;84986.98;;;20.76;43.32
40948;BME280;49382;-25.924;28.194;2022-10-31T00:35:20;84979.37;;;21.58;41.77
40948;BME280;49382;-25.924;28.194;2022-10-31T00:37:45;84977.07;;;21.27;42.12
40948;BME280;49382;-25.924;28.194;2022-10-31T00:40:12;84979.12;;;21.43;41.31
40948;BME280;49382;-25.924;28.194;2022-10-31T00:42:36;84982.86;;;20.93;42.64
40948;BME280;49382;-25.924;28.194;2022-10-31T00:45:03;84981.99;;;20.82;42.81
40948;BME280;49382;-25.924;28.194;2022-10-31T00:47:28;84977.52;;;21.33;42.15
40948;BME280;49382;-25.924;28.194;2022-10-31T00:49:54;84977.38;;;21.40;42.07
40948;BME280;49382;-25.924;28.194;2022-10-31T00:52:20;84969.54;;;21.26;42.56
40948;BME280;49382;-25.924;28.194;2022-10-31T00:54:45;84968.64;;;21.21;42.53
40948;BME280;49382;-25.924;28.194;2022-10-31T00:57:10;84971.77;;;21.24;42.98
40948;BME280;49382;-25.924;28.194;2022-10-31T00:59:36;84972.99;;;21.23;42.00
40948;BME280;49382;-25.924;28.194;2022-10-31T01:02:02;84974.59;;;21.06;42.13
40948;BME280;49382;-25.924;28.194;2022-10-31T01:04:27;84977.66;;;21.62;41.69
40948;BME280;49382;-25.924;28.194;2022-10-31T01:06:53;84981.51;;;21.18;42.14
40948;BME280;49382;-25.924;28.194;2022-10-31T01:09:19;84986.08;;;20.82;43.26
40948;BME280;49382;-25.924;28.194;2022-10-31T01:11:46;84985.94;;;21.08;42.18
40948;BME280;49382;-25.924;28.194;2022-10-31T01:14:10;84987.97;;;21.87;41.35
40948;BME280;49382;-25.924;28.194;2022-10-31T01:16:35;84986.93;;;21.55;41.44
40948;BME280;49382;-25.924;28.194;2022-10-31T01:19:01;84990.45;;;20.93;42.88
40948;BME280;49382;-25.924;28.194;2022-10-31T01:21:28;84987.67;;;20.70;43.06
40948;BME280;49382;-25.924;28.194;2022-10-31T01:23:54;84974.97;;;21.63;41.48
40948;BME280;49382;-25.924;28.194;2022-10-31T01:26:20;84974.09;;;21.19;42.08
40948;BME280;49382;-25.924;28.194;2022-10-31T01:28:46;84978.44;;;21.25;42.02
40948;BME280;49382;-25.924;28.194;2022-10-31T01:31:10;84980.95;;;21.14;42.01
40948;BME280;49382;-25.924;28.194;2022-10-31T01:33:36;84975.33;;;21.73;41.15
40948;BME280;49382;-25.924;28.194;2022-10-31T01:36:01;84972.11;;;21.78;41.03
40948;BME280;49382;-25.924;28.194;2022-10-31T01:38:26;84968.01;;;21.37;41.23
40948;BME280;49382;-25.924;28.194;2022-10-31T01:40:52;84967.20;;;21.83;40.98
40948;BME280;49382;-25.924;28.194;2022-10-31T01:43:18;84970.81;;;21.33;41.27
40948;BME280;49382;-25.924;28.194;2022-10-31T01:45:46;84975.76;;;21.83;40.47
40948;BME280;49382;-25.924;28.194;2022-10-31T01:48:13;84976.61;;;21.12;41.41
40948;BME280;49382;-25.924;28.194;2022-10-31T01:50:35;84979.04;;;20.80;42.19
40948;BME280;49382;-25.924;28.194;2022-10-31T01:53:01;84976.74;;;21.39;41.19
40948;BME280;49382;-25.924;28.194;2022-10-31T01:55:26;84979.38;;;21.25;41.05
40948;BME280;49382;-25.924;28.194;2022-10-31T01:57:52;84984.03;;;21.50;41.11
40948;BME280;49382;-25.924;28.194;2022-10-31T02:00:16;84985.57;;;21.79;40.96
40948;BME280;49382;-25.924;28.194;2022-10-31T02:02:42;84985.51;;;21.00;41.61
40948;BME280;49382;-25.924;28.194;2022-10-31T02:05:09;84995.43;;;20.91;42.19
40948;BME280;49382;-25.924;28.194;2022-10-31T02:07:36;84993.08;;;21.78;40.91
40948;BME280;49382;-25.924;28.194;2022-10-31T02:09:57;84999.89;;;21.24;41.17
40948;BME280;49382;-25.924;28.194;2022-10-31T02:12:23;84999.18;;;21.34;41.03
40948;BME280;49382;-25.924;28.194;2022-10-31T02:14:48;85002.52;;;22.02;39.84
40948;BME280;49382;-25.924;28.194;2022-10-31T02:17:14;85001.54;;;20.80;42.26
40948;BME280;49382;-25.924;28.194;2022-10-31T02:19:45;85006.41;;;20.94;41.46
40948;BME280;49382;-25.924;28.194;2022-10-31T02:22:12;85006.49;;;22.03;40.62
40948;BME280;49382;-25.924;28.194;2022-10-31T02:27:04;85017.45;;;21.46;40.45
40948;BME280;49382;-25.924;28.194;2022-10-31T02:31:50;85023.08;;;21.89;40.98
40948;BME280;49382;-25.924;28.194;2022-10-31T02:34:15;85031.51;;;20.95;42.02
40948;BME280;49382;-25.924;28.194;2022-10-31T02:36:42;85033.80;;;21.41;41.51
40948;BME280;49382;-25.924;28.194;2022-10-31T02:39:09;85044.38;;;21.17;41.81
40948;BME280;49382;-25.924;28.194;2022-10-31T02:41:32;85053.27;;;21.62;41.55
40948;BME280;49382;-25.924;28.194;2022-10-31T02:44:00;85054.34;;;21.96;41.28
40948;BME280;49382;-25.924;28.194;2022-10-31T02:46:24;85056.64;;;21.45;41.28
40948;BME280;49382;-25.924;28.194;2022-10-31T02:48:45;85058.72;;;21.63;41.15
40948;BME280;49382;-25.924;28.194;2022-10-31T02:51:10;85061.58;;;21.16;42.08
40948;BME280;49382;-25.924;28.194;2022-10-31T02:53:36;85062.76;;;20.72;42.36
40948;BME280;49382;-25.924;28.194;2022-10-31T02:56:04;85063.17;;;21.08;42.27
40948;BME280;49382;-25.924;28.194;2022-10-31T02:58:28;85059.45;;;21.94;40.29
40948;BME280;49382;-25.924;28.194;2022-10-31T03:01:03;85071.07;;;21.47;40.53
40948;BME280;49382;-25.924;28.194;2022-10-31T03:03:21;85076.14;;;20.68;42.21
40948;BME280;49382;-25.924;28.194;2022-10-31T03:05:51;85082.09;;;21.04;41.74
40948;BME280;49382;-25.924;28.194;2022-10-31T03:08:12;85087.27;;;19.95;43.08
40948;BME280;49382;-25.924;28.194;2022-10-31T03:10:38;85088.62;;;20.78;41.97
40948;BME280;49382;-25.924;28.194;2022-10-31T03:13:03;85091.07;;;20.99;41.26
40948;BME280;49382;-25.924;28.194;2022-10-31T03:15:26;85094.47;;;20.63;42.51
40948;BME280;49382;-25.924;28.194;2022-10-31T03:17:55;85099.78;;;21.44;40.70
40948;BME280;49382;-25.924;28.194;2022-10-31T03:20:16;85101.56;;;20.33;42.51
40948;BME280;49382;-25.924;28.194;2022-10-31T03:22:43;85105.86;;;21.01;41.42
40948;BME280;49382;-25.924;28.194;2022-10-31T03:25:06;85106.81;;;20.53;42.25
40948;BME280;49382;-25.924;28.194;2022-10-31T03:27:33;85111.92;;;20.72;41.98
40948;BME280;49382;-25.924;28.194;2022-10-31T03:30:00;85117.57;;;21.07;41.47
40948;BME280;49382;-25.924;28.194;2022-10-31T03:32:26;85123.87;;;21.58;40.31
40948;BME280;49382;-25.924;28.194;2022-10-31T03:34:49;85127.70;;;21.70;40.13
40948;BME280;49382;-25.924;28.194;2022-10-31T03:37:19;85128.01;;;21.94;40.10
40948;BME280;49382;-25.924;28.194;2022-10-31T03:39:41;85124.16;;;21.87;40.17
40948;BME280;49382;-25.924;28.194;2022-10-31T03:42:07;85121.77;;;21.31;40.77
40948;BME280;49382;-25.924;28.194;2022-10-31T03:44:30;85122.85;;;20.60;42.00
40948;BME280;49382;-25.924;28.194;2022-10-31T03:46:55;85125.34;;;21.03;41.39
40948;BME280;49382;-25.924;28.194;2022-10-31T03:49:20;85130.69;;;20.35;42.70
40948;BME280;49382;-25.924;28.194;2022-10-31T03:51:50;85134.84;;;21.79;41.07
40948;BME280;49382;-25.924;28.194;2022-10-31T03:54:15;85138.56;;;21.48;41.42
40948;BME280;49382;-25.924;28.194;2022-10-31T03:56:40;85142.60;;;21.80;40.56
40948;BME280;49382;-25.924;28.194;2022-10-31T03:59:05;85149.24;;;22.01;40.37
40948;BME280;49382;-25.924;28.194;2022-10-31T04:01:30;85149.59;;;21.69;40.63
40948;BME280;49382;-25.924;28.194;2022-10-31T04:03:53;85146.93;;;22.65;39.90
40948;BME280;49382;-25.924;28.194;2022-10-31T04:06:19;85152.60;;;21.62;41.35
40948;BME280;49382;-25.924;28.194;2022-10-31T04:08:47;85157.71;;;22.37;39.87
40948;BME280;49382;-25.924;28.194;2022-10-31T04:11:10;85161.77;;;22.20;40.04
40948;BME280;49382;-25.924;28.194;2022-10-31T04:13:35;85163.76;;;22.08;40.70
40948;BME280;49382;-25.924;28.194;2022-10-31T04:15:59;85163.58;;;21.23;41.42
40948;BME280;49382;-25.924;28.194;2022-10-31T04:18:25;85167.00;;;22.26;40.61
40948;BME280;49382;-25.924;28.194;2022-10-31T04:23:19;85179.01;;;22.60;39.52
40948;BME280;49382;-25.924;28.194;2022-10-31T04:25:41;85182.70;;;21.77;41.08
40948;BME280;49382;-25.924;28.194;2022-10-31T04:28:07;85177.98;;;23.12;39.28
40948;BME280;49382;-25.924;28.194;2022-10-31T04:30:32;85183.00;;;22.06;40.93
40948;BME280;49382;-25.924;28.194;2022-10-31T04:32:58;85182.86;;;23.07;39.27
40948;BME280;49382;-25.924;28.194;2022-10-31T04:35:23;85187.00;;;23.68;38.80
40948;BME280;49382;-25.924;28.194;2022-10-31T04:37:49;85184.34;;;23.02;39.13
40948;BME280;49382;-25.924;28.194;2022-10-31T04:40:14;85187.06;;;22.74;39.59
40948;BME280;49382;-25.924;28.194;2022-10-31T04:42:39;85191.67;;;23.71;37.90
40948;BME280;49382;-25.924;28.194;2022-10-31T04:45:05;85193.75;;;23.39;39.49
40948;BME280;49382;-25.924;28.194;2022-10-31T04:47:31;85196.05;;;24.43;37.32
40948;BME280;49382;-25.924;28.194;2022-10-31T04:49:55;85195.55;;;24.74;36.86
40948;BME280;49382;-25.924;28.194;2022-10-31T04:52:20;85193.84;;;24.37;37.37
40948;BME280;49382;-25.924;28.194;2022-10-31T04:54:45;85196.56;;;25.12;36.21
40948;BME280;49382;-25.924;28.194;2022-10-31T04:57:11;85196.44;;;24.32;36.99
40948;BME280;49382;-25.924;28.194;2022-10-31T04:59:37;85196.14;;;24.32;37.37
40948;BME280;49382;-25.924;28.194;2022-10-31T05:02:02;85194.87;;;24.53;36.90
40948;BME280;49382;-25.924;28.194;2022-10-31T05:04:28;85197.61;;;25.33;35.59
40948;BME280;49382;-25.924;28.194;2022-10-31T05:06:53;85197.83;;;24.78;37.14
40948;BME280;49382;-25.924;28.194;2022-10-31T05:09:18;85198.65;;;25.19;36.37
40948;BME280;49382;-25.924;28.194;2022-10-31T05:11:44;85199.19;;;25.35;36.06
40948;BME280;49382;-25.924;28.194;2022-10-31T05:14:09;85199.62;;;25.53;35.46
40948;BME280;49382;-25.924;28.194;2022-10-31T05:16:35;85201.45;;;25.23;35.71
40948;BME280;49382;-25.924;28.194;2022-10-31T05:19:00;85203.10;;;25.30;35.84
40948;BME280;49382;-25.924;28.194;2022-10-31T05:21:25;85200.85;;;25.61;35.12
40948;BME280;49382;-25.924;28.194;2022-10-31T05:23:51;85198.93;;;25.87;35.18
40948;BME280;49382;-25.924;28.194;2022-10-31T05:26:16;85195.16;;;25.40;35.75
40948;BME280;49382;-25.924;28.194;2022-10-31T05:28:42;85196.98;;;25.46;35.60
40948;BME280;49382;-25.924;28.194;2022-10-31T05:31:07;85200.10;;;26.04;34.87
40948;BME280;49382;-25.924;28.194;2022-10-31T05:33:32;85196.42;;;25.42;36.13
40948;BME280;49382;-25.924;28.194;2022-10-31T05:35:57;85198.58;;;25.70;36.03
40948;BME280;49382;-25.924;28.194;2022-10-31T05:38:23;85201.24;;;25.88;35.25
40948;BME280;49382;-25.924;28.194;2022-10-31T05:40:48;85205.66;;;26.23;34.94
40948;BME280;49382;-25.924;28.194;2022-10-31T05:43:14;85207.32;;;26.74;33.81
40948;BME280;49382;-25.924;28.194;2022-10-31T05:45:39;85207.58;;;27.09;33.20
40948;BME280;49382;-25.924;28.194;2022-10-31T05:48:05;85209.63;;;27.06;34.66
40948;BME280;49382;-25.924;28.194;2022-10-31T05:50:31;85206.51;;;26.50;34.50
40948;BME280;49382;-25.924;28.194;2022-10-31T05:52:57;85200.53;;;25.66;37.26
40948;BME280;49382;-25.924;28.194;2022-10-31T05:55:21;85206.74;;;26.63;34.66
40948;BME280;49382;-25.924;28.194;2022-10-31T05:57:46;85211.98;;;26.75;33.99
40948;BME280;49382;-25.924;28.194;2022-10-31T06:00:13;85217.24;;;26.70;33.27
40948;BME280;49382;-25.924;28.194;2022-10-31T06:02:38;85217.23;;;26.46;34.95
40948;BME280;49382;-25.924;28.194;2022-10-31T06:05:04;85220.02;;;27.29;34.34
40948;BME280;49382;-25.924;28.194;2022-10-31T06:07:33;85218.53;;;27.17;33.94
40948;BME280;49382;-25.924;28.194;2022-10-31T06:09:55;85217.02;;;26.50;33.27
40948;BME280;49382;-25.924;28.194;2022-10-31T06:12:21;85219.66;;;26.84;33.13
40948;BME280;49382;-25.924;28.194;2022-10-31T06:14:47;85219.62;;;28.04;33.23
40948;BME280;49382;-25.924;28.194;2022-10-31T06:17:13;85220.05;;;27.68;32.58
40948;BME280;49382;-25.924;28.194;2022-10-31T06:19:38;85219.64;;;27.04;33.85
40948;BME280;49382;-25.924;28.194;2022-10-31T06:22:04;85222.14;;;27.10;31.13
40948;BME280;49382;-25.924;28.194;2022-10-31T06:24:30;85226.74;;;28.28;31.27
40948;BME280;49382;-25.924;28.194;2022-10-31T06:26:56;85226.47;;;27.66;31.29
40948;BME280;49382;-25.924;28.194;2022-10-31T06:29:21;85224.33;;;27.39;31.50
40948;BME280;49382;-25.924;28.194;2022-10-31T06:31:47;85223.43;;;27.59;30.89
40948;BME280;49382;-25.924;28.194;2022-10-31T06:34:13;85221.43;;;27.98;30.32
40948;BME280;49382;-25.924;28.194;2022-10-31T06:36:39;85221.76;;;28.16;30.50
40948;BME280;49382;-25.924;28.194;2022-10-31T06:39:04;85218.33;;;27.08;31.51
40948;BME280;49382;-25.924;28.194;2022-10-31T06:41:30;85219.93;;;28.21;30.28
40948;BME280;49382;-25.924;28.194;2022-10-31T06:43:56;85217.68;;;27.69;30.29
40948;BME280;49382;-25.924;28.194;2022-10-31T06:46:22;85218.66;;;27.75;30.35
40948;BME280;49382;-25.924;28.194;2022-10-31T06:48:47;85220.30;;;28.14;29.96
40948;BME280;49382;-25.924;28.194;2022-10-31T06:51:13;85215.59;;;27.18;30.84
40948;BME280;49382;-25.924;28.194;2022-10-31T06:53:39;85220.61;;;28.35;30.17
40948;BME280;49382;-25.924;28.194;2022-10-31T06:56:05;85217.27;;;28.83;29.70
40948;BME280;49382;-25.924;28.194;2022-10-31T06:58:30;85216.38;;;28.85;30.09
40948;BME280;49382;-25.924;28.194;2022-10-31T07:00:59;85219.54;;;29.25;29.79
40948;BME280;49382;-25.924;28.194;2022-10-31T07:03:22;85228.32;;;29.31;28.85
40948;BME280;49382;-25.924;28.194;2022-10-31T07:05:48;85235.72;;;29.29;29.07
40948;BME280;49382;-25.924;28.194;2022-10-31T07:08:14;85237.45;;;28.89;29.42
40948;BME280;49382;-25.924;28.194;2022-10-31T07:10:40;85242.22;;;29.21;29.65
40948;BME280;49382;-25.924;28.194;2022-10-31T07:13:06;85248.14;;;29.78;29.07
40948;BME280;49382;-25.924;28.194;2022-10-31T07:15:34;85245.88;;;28.31;29.73
40948;BME280;49382;-25.924;28.194;2022-10-31T07:18:00;85241.71;;;28.69;29.22
40948;BME280;49382;-25.924;28.194;2022-10-31T07:20:22;85241.75;;;29.35;28.60
40948;BME280;49382;-25.924;28.194;2022-10-31T07:22:48;85242.04;;;29.47;27.67
40948;BME280;49382;-25.924;28.194;2022-10-31T07:25:13;85242.06;;;29.69;27.38
40948;BME280;49382;-25.924;28.194;2022-10-31T07:27:40;85240.76;;;29.57;27.80
40948;BME280;49382;-25.924;28.194;2022-10-31T07:30:08;85234.70;;;30.04;27.31
40948;BME280;49382;-25.924;28.194;2022-10-31T07:32:39;85238.48;;;29.57;27.75
40948;BME280;49382;-25.924;28.194;2022-10-31T07:34:56;85230.62;;;28.59;27.79
40948;BME280;49382;-25.924;28.194;2022-10-31T07:37:22;85234.01;;;29.26;28.55
40948;BME280;49382;-25.924;28.194;2022-10-31T07:39:48;85234.26;;;28.69;28.54
40948;BME280;49382;-25.924;28.194;2022-10-31T07:42:14;85232.88;;;28.54;28.22
40948;BME280;49382;-25.924;28.194;2022-10-31T07:44:39;85229.77;;;28.87;29.59
40948;BME280;49382;-25.924;28.194;2022-10-31T07:47:05;85230.81;;;29.49;28.54
40948;BME280;49382;-25.924;28.194;2022-10-31T07:49:31;85233.06;;;29.15;28.84
40948;BME280;49382;-25.924;28.194;2022-10-31T07:51:56;85232.00;;;29.98;27.84
40948;BME280;49382;-25.924;28.194;2022-10-31T07:54:22;85235.88;;;29.97;26.63
40948;BME280;49382;-25.924;28.194;2022-10-31T07:56:48;85234.09;;;30.43;26.45
40948;BME280;49382;-25.924;28.194;2022-10-31T07:59:13;85230.24;;;30.46;27.01
40948;BME280;49382;-25.924;28.194;2022-10-31T08:01:39;85222.70;;;29.85;27.11
40948;BME280;49382;-25.924;28.194;2022-10-31T08:04:05;85223.47;;;29.47;26.71
40948;BME280;49382;-25.924;28.194;2022-10-31T08:06:30;85220.14;;;29.14;29.51
40948;BME280;49382;-25.924;28.194;2022-10-31T08:08:56;85216.95;;;29.19;28.65
40948;BME280;49382;-25.924;28.194;2022-10-31T08:11:22;85215.06;;;29.77;28.15
40948;BME280;49382;-25.924;28.194;2022-10-31T08:13:48;85219.73;;;29.47;28.33
40948;BME280;49382;-25.924;28.194;2022-10-31T08:16:13;85218.47;;;29.96;28.01
40948;BME280;49382;-25.924;28.194;2022-10-31T08:18:39;85217.31;;;29.69;29.04
40948;BME280;49382;-25.924;28.194;2022-10-31T08:21:05;85220.05;;;28.98;29.49
40948;BME280;49382;-25.924;28.194;2022-10-31T08:23:30;85218.93;;;28.71;29.79
40948;BME280;49382;-25.924;28.194;2022-10-31T08:25:57;85217.24;;;28.75;28.86
40948;BME280;49382;-25.924;28.194;2022-10-31T08:28:21;85207.20;;;29.09;27.71
40948;BME280;49382;-25.924;28.194;2022-10-31T08:30:47;85214.38;;;29.34;28.04
40948;BME280;49382;-25.924;28.194;2022-10-31T08:33:15;85211.52;;;29.40;27.89
40948;BME280;49382;-25.924;28.194;2022-10-31T08:35:39;85214.90;;;29.25;29.10
40948;BME280;49382;-25.924;28.194;2022-10-31T08:38:04;85204.57;;;29.46;28.83
40948;BME280;49382;-25.924;28.194;2022-10-31T08:40:32;85204.95;;;29.54;27.80
40948;BME280;49382;-25.924;28.194;2022-10-31T08:42:58;85211.47;;;29.42;27.19
40948;BME280;49382;-25.924;28.194;2022-10-31T08:45:21;85210.47;;;29.52;28.26
40948;BME280;49382;-25.924;28.194;2022-10-31T08:47:47;85203.37;;;29.37;26.66
40948;BME280;49382;-25.924;28.194;2022-10-31T08:50:12;85197.95;;;28.52;27.23
40948;BME280;49382;-25.924;28.194;2022-10-31T08:52:38;85197.13;;;29.12;26.50
40948;BME280;49382;-25.924;28.194;2022-10-31T08:55:05;85189.30;;;28.82;27.56
40948;BME280;49382;-25.924;28.194;2022-10-31T08:57:30;85189.31;;;30.03;26.25
40948;BME280;49382;-25.924;28.194;2022-10-31T08:59:55;85192.14;;;29.86;25.74
40948;BME280;49382;-25.924;28.194;2022-10-31T09:02:21;85194.57;;;29.77;26.57
40948;BME280;49382;-25.924;28.194;2022-10-31T09:04:47;85189.74;;;29.78;26.76
40948;BME280;49382;-25.924;28.194;2022-10-31T09:07:13;85192.08;;;30.57;25.36
40948;BME280;49382;-25.924;28.194;2022-10-31T09:09:38;85184.25;;;29.72;26.50
40948;BME280;49382;-25.924;28.194;2022-10-31T09:12:04;85175.19;;;29.36;25.79
40948;BME280;49382;-25.924;28.194;2022-10-31T09:14:30;85172.59;;;28.96;25.93
40948;BME280;49382;-25.924;28.194;2022-10-31T09:16:55;85162.26;;;27.99;26.71
40948;BME280;49382;-25.924;28.194;2022-10-31T09:19:21;85165.23;;;28.88;26.63
40948;BME280;49382;-25.924;28.194;2022-10-31T09:21:46;85166.85;;;29.42;25.73
40948;BME280;49382;-25.924;28.194;2022-10-31T09:24:12;85164.46;;;29.18;26.52
40948;BME280;49382;-25.924;28.194;2022-10-31T09:26:37;85153.30;;;29.78;26.23
40948;BME280;49382;-25.924;28.194;2022-10-31T09:29:03;85154.75;;;29.32;26.96
40948;BME280;49382;-25.924;28.194;2022-10-31T09:31:29;85151.37;;;28.87;27.56
40948;BME280;49382;-25.924;28.194;2022-10-31T09:33:55;85153.78;;;29.62;25.72
40948;BME280;49382;-25.924;28.194;2022-10-31T09:36:20;85157.49;;;29.95;26.22
40948;BME280;49382;-25.924;28.194;2022-10-31T09:38:47;85160.67;;;29.55;27.16
40948;BME280;49382;-25.924;28.194;2022-10-31T09:41:19;85162.82;;;29.47;27.53
40948;BME280;49382;-25.924;28.194;2022-10-31T09:43:46;85161.55;;;29.58;26.55
40948;BME280;49382;-25.924;28.194;2022-10-31T09:46:10;85154.77;;;29.27;27.36
40948;BME280;49382;-25.924;28.194;2022-10-31T09:48:37;85155.25;;;29.55;27.82
40948;BME280;49382;-25.924;28.194;2022-10-31T09:50:58;85160.51;;;30.14;27.11
40948;BME280;49382;-25.924;28.194;2022-10-31T09:53:25;85160.79;;;30.09;26.78
40948;BME280;49382;-25.924;28.194;2022-10-31T09:55:48;85156.76;;;29.27;26.84
40948;BME280;49382;-25.924;28.194;2022-10-31T09:58:16;85158.28;;;29.29;26.95
40948;BME280;49382;-25.924;28.194;2022-10-31T10:00:37;85146.95;;;29.56;26.97
40948;BME280;49382;-25.924;28.194;2022-10-31T10:03:10;85151.76;;;28.16;28.69
40948;BME280;49382;-25.924;28.194;2022-10-31T10:05:37;85152.06;;;29.52;26.87
40948;BME280;49382;-25.924;28.194;2022-10-31T10:08:00;85149.41;;;29.01;27.85
40948;BME280;49382;-25.924;28.194;2022-10-31T10:10:27;85147.28;;;29.01;28.29
40948;BME280;49382;-25.924;28.194;2022-10-31T10:13:03;85138.98;;;29.18;27.62
40948;BME280;49382;-25.924;28.194;2022-10-31T10:15:27;85134.10;;;29.19;27.43
40948;BME280;49382;-25.924;28.194;2022-10-31T10:17:41;85136.79;;;29.06;26.87
40948;BME280;49382;-25.924;28.194;2022-10-31T10:20:15;85132.58;;;29.30;27.07
40948;BME280;49382;-25.924;28.194;2022-10-31T10:22:35;85134.16;;;28.95;27.42
40948;BME280;49382;-25.924;28.194;2022-10-31T10:25:04;85127.05;;;28.68;27.33
40948;BME280;49382;-25.924;28.194;2022-10-31T10:27:25;85121.67;;;28.42;28.15
40948;BME280;49382;-25.924;28.194;2022-10-31T10:29:49;85119.03;;;28.60;28.40
40948;BME280;49382;-25.924;28.194;2022-10-31T10:32:13;85117.79;;;28.35;27.60
40948;BME280;49382;-25.924;28.194;2022-10-31T10:34:41;85115.87;;;28.55;27.98
40948;BME280;49382;-25.924;28.194;2022-10-31T10:37:05;85112.75;;;28.50;28.41
40948;BME280;49382;-25.924;28.194;2022-10-31T10:39:35;85107.64;;;29.05;27.73
40948;BME280;49382;-25.924;28.194;2022-10-31T10:41:53;85102.04;;;28.01;29.04
40948;BME280;49382;-25.924;28.194;2022-10-31T10:44:19;85098.52;;;28.84;27.90
40948;BME280;49382;-25.924;28.194;2022-10-31T10:46:51;85093.53;;;28.17;29.67
40948;BME280;49382;-25.924;28.194;2022-10-31T10:49:16;85088.61;;;28.11;29.20
40948;BME280;49382;-25.924;28.194;2022-10-31T10:51:40;85082.02;;;29.17;27.92
40948;BME280;49382;-25.924;28.194;2022-10-31T10:54:16;85077.75;;;29.20;28.36
40948;BME280;49382;-25.924;28.194;2022-10-31T10:56:39;85068.58;;;28.90;28.56
40948;BME280;49382;-25.924;28.194;2022-10-31T10:58:54;85057.22;;;28.61;29.28
40948;BME280;49382;-25.924;28.194;2022-10-31T11:01:18;85038.87;;;28.38;28.60
40948;BME280;49382;-25.924;28.194;2022-10-31T11:03:44;85040.30;;;28.13;29.15
40948;BME280;49382;-25.924;28.194;2022-10-31T11:06:17;85040.35;;;27.18;29.87
40948;BME280;49382;-25.924;28.194;2022-10-31T11:08:36;85033.93;;;27.19;29.02
40948;BME280;49382;-25.924;28.194;2022-10-31T11:11:02;85021.36;;;26.84;29.95
40948;BME280;49382;-25.924;28.194;2022-10-31T11:13:25;85026.46;;;27.86;29.17
40948;BME280;49382;-25.924;28.194;2022-10-31T11:15:55;85026.06;;;28.14;29.87
40948;BME280;49382;-25.924;28.194;2022-10-31T11:18:21;85025.79;;;27.37;29.32
40948;BME280;49382;-25.924;28.194;2022-10-31T11:20:50;85021.59;;;27.46;29.48
40948;BME280;49382;-25.924;28.194;2022-10-31T11:23:16;85024.71;;;26.39;29.99
40948;BME280;49382;-25.924;28.194;2022-10-31T11:25:32;85023.55;;;27.01;29.18
40948;BME280;49382;-25.924;28.194;2022-10-31T11:28:03;85028.04;;;27.38;29.14
40948;BME280;49382;-25.924;28.194;2022-10-31T11:30:24;85021.90;;;27.32;29.68
40948;BME280;49382;-25.924;28.194;2022-10-31T11:32:50;85016.22;;;27.26;29.59
40948;BME280;49382;-25.924;28.194;2022-10-31T11:35:18;85011.09;;;27.37;29.32
40948;BME280;49382;-25.924;28.194;2022-10-31T11:37:44;85006.89;;;26.80;30.58
40948;BME280;49382;-25.924;28.194;2022-10-31T11:42:37;85001.13;;;27.54;29.89
40948;BME280;49382;-25.924;28.194;2022-10-31T11:44:58;84996.30;;;27.68;28.42
40948;BME280;49382;-25.924;28.194;2022-10-31T11:47:27;84990.49;;;28.18;27.91
40948;BME280;49382;-25.924;28.194;2022-10-31T11:49:49;84984.54;;;27.72;28.60
40948;BME280;49382;-25.924;28.194;2022-10-31T11:52:17;84975.44;;;27.73;28.47
40948;BME280;49382;-25.924;28.194;2022-10-31T11:54:45;84971.37;;;26.83;29.22
40948;BME280;49382;-25.924;28.194;2022-10-31T11:59:33;84964.08;;;27.14;29.48
40948;BME280;49382;-25.924;28.194;2022-10-31T12:02:01;84960.73;;;27.30;28.84
40948;BME280;49382;-25.924;28.194;2022-10-31T12:04:33;84959.58;;;27.63;28.51
40948;BME280;49382;-25.924;28.194;2022-10-31T12:06:51;84950.19;;;27.52;27.79
40948;BME280;49382;-25.924;28.194;2022-10-31T12:09:20;84946.26;;;27.61;28.61
40948;BME280;49382;-25.924;28.194;2022-10-31T12:11:52;84944.04;;;27.57;28.46
40948;BME280;49382;-25.924;28.194;2022-10-31T12:14:17;84950.52;;;27.66;28.55
40948;BME280;49382;-25.924;28.194;2022-10-31T12:16:36;84946.86;;;28.03;27.80
40948;BME280;49382;-25.924;28.194;2022-10-31T12:19:02;84948.28;;;27.81;28.35
40948;BME280;49382;-25.924;28.194;2022-10-31T12:21:34;84942.71;;;27.46;28.24
40948;BME280;49382;-25.924;28.194;2022-10-31T12:23:58;84940.27;;;27.46;29.39
40948;BME280;49382;-25.924;28.194;2022-10-31T12:26:21;84943.88;;;28.19;28.16
40948;BME280;49382;-25.924;28.194;2022-10-31T12:28:51;84950.30;;;27.36;27.66
40948;BME280;49382;-25.924;28.194;2022-10-31T12:31:16;84953.09;;;28.76;26.18
40948;BME280;49382;-25.924;28.194;2022-10-31T12:33:45;84948.07;;;28.16;27.10
40948;BME280;49382;-25.924;28.194;2022-10-31T12:36:10;84955.54;;;28.45;27.34
40948;BME280;49382;-25.924;28.194;2022-10-31T12:38:36;84966.22;;;29.06;26.04
40948;BME280;49382;-25.924;28.194;2022-10-31T12:41:02;84968.17;;;28.96;26.70
40948;BME280;49382;-25.924;28.194;2022-10-31T12:43:25;84967.61;;;28.13;26.84